Airfield :
LOGIN :

Register | Disclaimer

   EN    FR    IT 

 










Legend :    VFR   Marginal VFR   IFR   Intensive IFR   Very Intensive IFR
Visi :
Ceiling :
>= 8 km
>= 3000ft
5 to 8 km
1000 to 3000 ft
1500m to 5 km
500 to 1000 ft
800 to 1500m
200 to 500 ft
< 800m
< 200 ft
Symbols :   Thunderstorms  Fog  Heavy snow  Heavy precipitations  Wind > 20 kt
SIGMETs :     Misc.  Thunderstorms  Icing  Turbulence  Mountain Waves  Volcanic Ashes






- Airport Elevation : 587 ft
- IATA code : XCR


LFOK - Chalons Vatry

CURRENT METAR :
  • 021730Z AUTO 28011KT 9999 FEW047 SCT088 20/11 Q1015 TEMPO 4000 SHRA BKN025TCU

EXPIRED METARs :
  • 021700Z AUTO 26013KT 9999 FEW044 21/11 Q1015 TEMPO 24015G25KT 4000 SHRA BKN025TCU
  • 021630Z AUTO 25013KT CAVOK 20/12 Q1015 TEMPO 24015G25KT 4000 SHRA BKN025TCU
  • 021600Z AUTO 24012KT CAVOK 20/12 Q1015 TEMPO 24015G25KT 4000 SHRA BKN025TCU
  • 021530Z AUTO 27011KT 9999 FEW041 OVC084 20/12 Q1015 TEMPO 24015G25KT 4000 SHRA BKN025TCU
  • 021500Z AUTO 27012KT 9999 FEW042 SCT050 BKN074 20/12 Q1015 TEMPO 24015G25KT 4000 SHRA BKN025TCU

TAF TAF LFOK
Valid from the 02 at 12:00 until the 03 at 12:00 UTC


021100Z 0212/0312 24012KT 9999 SCT025
TEMPO 0212/0219 24015G25KT 4000 SHRA BKN025TCU



MET'MAP, your aeronautical weather chart ! - Copyright ORBIFLY December 2007 - Disclaimer

ORBIFLY MET'MAP TEAM :

Programming & Development : Alexandra Zaïnal
Concept & original design : Baudouin d'Aumeries
Assistance for programming : Marc-Olivier Méhu
Technical & hardware support : Manuel Goepfert

Contact : metmap@orbifly.com




SOURCES & CREDITS :

   NOAA